Tiempo atmosférico en la estación meteorológica de Biescas, Huesca (1100 m.)



Fecha
DESCASC
Temp. máxima en grados centígrados (hora)
DESCASC
Temp. mínima en grados centígrados (hora)
DESCASC
Temp. media en grados centígrados
DESCASC
Racha de viento máxima en m/sg (hora)
DESCASC
Velocidad máxima media en intervalos de 10 minutos(hora)
DESCASC
Precipitaciones diarias en mm
DESCASC
Precipitaciones de 00:00 a 06:00 en mm
DESCASC
Precipitaciones de 06:00 a 12:00 en mm
DESCASC
Precipitaciones de 12:00 a 18:00 en mm
DESCASC
Precipitaciones de 18:00 a 24:00 en mm
DESCASC
18-01-2018 8.9 (14:20) -3.1 (06:50) 2.9 6.67 (13:50) 3.33 (13:40) 0 0 0 0 0
17-01-2018 10.4 (00:20) -0.8 (23:59) 4.8 14.17 (12:40) 5.28 (12:50) 0 0 0 0 0
16-01-2018 12.1 (15:10) -0.1 (06:30) 6 9.17 (19:10) 2.78 (16:40) 0 0 0 0 0
15-01-2018 2.9 (13:30) -3.6 (08:30) -0.3 5 (14:20) 2.22 (14:30) 0 0 0 0 0
14-01-2018 1.9 (13:10) -0.3 (00:00) 0.8 4.17 (14:00) 1.94 (14:40) 5.6 3.8 1.6 0.2 0
13-01-2018 5.3 (15:40) -4.7 (-00:0) 0.3 6.39 (17:00) 2.5 (17:00) 0.2 0 0 0 0.2
12-01-2018 7.6 (13:20) -3 (-00:0) 2.3 7.78 (11:10) 3.06 (11:10) 0 0 0 0 0
11-01-2018 4.1 (14:20) -2.2 (-00:0) 0.9 6.67 (12:50) 3.06 (14:00) 0 0 0 0 0
10-01-2018 3.7 (13:40) -3.9 (-00:0) -0.1 7.78 (14:00) 3.06 (14:00) 3.8 0.2 0 0 3.6
09-01-2018 5.5 (15:10) -6.6 (-00:0) -0.5 6.67 (16:00) 3.06 (16:00) 0.4 0 0 0 0.4
08-01-2018 4.7 (13:50) -4.1 (-00:0) 0.3 2.5 (15:20) 1.11 (15:20) 0 0 0 0 0
07-01-2018 4.9 (08:20) 0 (00:00) 2.5 15.28 (08:20) 6.11 (08:10) 31.2 14.6 8.2 8.4 0
06-01-2018 6.8 (13:20) 1.5 (00:00) 4.2 8.06 (13:30) 3.33 (13:20) 21.6 13 5.4 1 2.2
05-01-2018 7.1 (15:10) 0.4 (00:00) 3.7 7.22 (16:00) 2.78 (16:00) 5.4 0 0 1.2 4.2
04-01-2018 14.7 (14:30) 2 (23:00) 8.3 8.06 (00:10) 3.06 (00:20) 0 0 0 0 0
03-01-2018 12.9 (12:30) 3.3 (00:00) 8.1 8.89 (22:10) 3.33 (22:20) 1 0.2 0.6 0 0.2
02-01-2018 6.5 (14:30) 1.9 (00:00) 4.2 9.17 (01:20) 3.33 (01:20) 6.4 0.2 3.4 2 0.8
01-01-2018 5.8 (23:30) -1.3 (-00:0) 2.3 11.67 (21:20) 3.89 (21:20) 12.8 0.2 0 4.2 8.4
31-12-2017 6.6 (14:50) -2.4 (-00:0) 2.1 8.06 (16:30) 3.89 (16:30) 2.6 0 0 0 2.6
30-12-2017 9 (14:10) -1.1 (-00:0) 3.9 5 (15:50) 2.5 (15:50) 0 0 0 0 0
29-12-2017 6.2 (14:40) -0.3 (00:00) 2.9 8.33 (00:20) 2.5 (02:10) 7.6 0 6.4 1.2 0
28-12-2017 3.1 (23:30) -1 (-00:0) 1 8.89 (23:20) 1.94 (21:50) 8.6 0 0 7 1.6
27-12-2017 0.8 (01:00) -1.5 (-00:0) -0.3 6.11 (18:30) 1.94 (23:10) 40.2 15.4 8.6 14.2 2
26-12-2017 5.1 (00:00) -0.1 (00:00) 2.5 6.67 (15:10) 2.78 (20:20) 10.8 7.4 0 0.4 3
25-12-2017 10.7 (14:10) -2.5 (-00:0) 4.1 6.39 (18:10) 2.5 (17:50) 0 0 0 0 0
24-12-2017 10 (14:10) -2.4 (-00:0) 3.8 1.39 (14:00) 0.56 (13:30) 0 0 0 0 0

Gráficas

Temp. máximas Temp. mínimas Temp. medias Precipitaciones Rachas de viento máximas Velocidades máximas media en intervalos de 10 minutos

Datos horarios

Fecha y hora oficial Temperatura (ºC) Velocidad del viento (km/h) Dirección del viento Racha (km/h) Dirección de racha Precipitación (mm) Presión (hPa) Tendencia (hPa) Humedad (%)
2018-01-22 23:00:00 9 9 Norte 35 Noroeste 0 -- -- 50
2018-01-22 22:00:00 9.8 9 Noroeste 33 Noroeste 0 -- -- 50
2018-01-22 21:00:00 10.6 13 Noroeste 31 Norte 0 -- -- 53
2018-01-22 20:00:00 10.5 10 Noroeste 26 Noroeste 0 -- -- 63
2018-01-22 19:00:00 10.7 10 Noroeste 30 Norte 0 -- -- 62
2018-01-22 18:00:00 11.2 7 Noroeste 23 Noroeste 0 -- -- 58
2018-01-22 17:00:00 11.5 5 Noroeste 19 Noroeste 0 -- -- 57
2018-01-22 16:00:00 11.9 14 Noroeste 34 Noroeste 0 -- -- 49
2018-01-22 15:00:00 15.1 8 Noroeste 26 Noroeste 0 -- -- 22
2018-01-22 14:00:00 12.8 3 Este 8 Este 0 -- -- 57
2018-01-22 13:00:00 11.8 2 Norte 9 Este 0 -- -- 58
2018-01-22 12:00:00 11.9 2 Sudeste 5 Sudeste 0 -- -- 47
2018-01-22 11:00:00 8.3 3 Sudeste 7 Sudoeste 0 -- -- 53
2018-01-22 10:00:00 4.1 2 Sudoeste 8 Este 0 -- -- 72
2018-01-22 09:00:00 2.6 2 Sur 4 Oeste 0 -- -- 76
2018-01-22 08:00:00 2.8 2 Sur 5 Sudoeste 0 -- -- 78
2018-01-22 07:00:00 3.4 2 Sudoeste 5 Norte 0 -- -- 80
2018-01-22 06:00:00 3.4 3 Sudoeste 5 Sudoeste 0 -- -- 82
2018-01-22 05:00:00 3.7 2 Noroeste 6 Sur 0 -- -- 85
2018-01-22 04:00:00 4.2 3 Sur 5 Sur 0 -- -- 82
2018-01-22 03:00:00 4.3 2 Sudeste 5 Sudoeste 0 -- -- 81
2018-01-22 02:00:00 5.2 0 Calma 14 Este 0 -- -- 77
2018-01-22 01:00:00 6.5 6 Nordeste 34 Nordeste 0 -- -- 73
2018-01-22 00:00:00 8.7 5 Nordeste 28 Norte 0 -- -- 64
2018-01-21 23:00:00 9.8 8 Norte 32 Norte 0 -- -- 61
2018-01-21 22:00:00 10.2 10 Norte 34 Norte 0 -- -- 61
2018-01-21 21:00:00 10.3 8 Noroeste 25 Noroeste 0 -- -- 62
2018-01-21 20:00:00 10.6 12 Noroeste 33 Noroeste 0 -- -- 61
2018-01-21 19:00:00 10.9 14 Noroeste 31 Norte 0 -- -- 62
2018-01-21 18:00:00 10.7 14 Noroeste 37 Noroeste 0 -- -- 64
2018-01-21 17:00:00 10.7 10 Noroeste 31 Noroeste 0 -- -- 66
2018-01-21 16:00:00 11.1 8 Noroeste 33 Norte 0 -- -- 64
2018-01-21 15:00:00 11.9 12 Noroeste 30 Norte 0 -- -- 61
2018-01-21 14:00:00 11.9 8 Noroeste 33 Noroeste 0 -- -- 63
2018-01-21 13:00:00 11 13 Noroeste 38 Norte 0.4 -- -- 70
2018-01-21 12:00:00 10.8 17 Noroeste 37 Norte 0 -- -- 72
2018-01-21 11:00:00 8.6 3 Noroeste 9 Norte 0 -- -- 93
2018-01-21 10:00:00 7.4 0 Calma 9 Nordeste 0.2 -- -- 95
2018-01-21 09:00:00 7 4 Sudeste 16 Nordeste 0 -- -- 93
2018-01-21 08:00:00 6.7 3 Oeste 9 Sudeste 0.2 -- -- 94
2018-01-21 07:00:00 7.1 4 Noroeste 16 Noroeste 0 -- -- 90
2018-01-21 06:00:00 6.8 4 Sudoeste 21 Nordeste 0.4 -- -- 92
2018-01-21 05:00:00 7.1 2 Oeste 17 Nordeste 0.4 -- -- 90
2018-01-21 04:00:00 8.3 5 Nordeste 23 Noroeste 0.8 -- -- 82
2018-01-21 03:00:00 9 5 Noroeste 22 Noroeste 0.2 -- -- 78
2018-01-21 02:00:00 9.1 7 Noroeste 26 Noroeste 0 -- -- 75
2018-01-21 01:00:00 9 9 Noroeste 27 Noroeste 0.8 -- -- 74
2018-01-21 00:00:00 9.5 8 Noroeste 31 Noroeste 0 -- -- 71
2018-01-20 23:00:00 8.7 9 Noroeste 34 Noroeste 0.8 -- -- 76
2018-01-20 22:00:00 9 9 Noroeste 27 Noroeste 0.4 -- -- 73
2018-01-20 21:00:00 8.5 7 Noroeste 33 Noroeste 0.8 -- -- 75
2018-01-20 20:00:00 9 8 Noroeste 27 Noroeste 0.8 -- -- 74
2018-01-20 19:00:00 9.1 9 Noroeste 28 Noroeste 0.8 -- -- 76
2018-01-20 18:00:00 9.5 10 Noroeste 34 Noroeste 0 -- -- 72
2018-01-20 17:00:00 9.5 10 Noroeste 28 Noroeste 0.6 -- -- 73
2018-01-20 16:00:00 9.4 7 Oeste 31 Norte 0.4 -- -- 74
2018-01-20 15:00:00 9.5 7 Noroeste 26 Noroeste 0.2 -- -- 72
2018-01-20 14:00:00 9.6 9 Norte 26 Noroeste 0 -- -- 68
2018-01-20 13:00:00 8.8 5 Norte 16 Norte 0.2 -- -- 68
2018-01-20 12:00:00 5.3 0 Calma 10 Norte 0 -- -- 93
2018-01-20 11:00:00 3.5 3 Sudoeste 8 Este 0 -- -- 92
2018-01-20 10:00:00 2.2 2 Sudoeste 6 Sudoeste 0.2 -- -- 90
2018-01-20 09:00:00 1.3 3 Sudoeste 6 Este 0 -- -- 87
2018-01-20 08:00:00 1.1 3 Noroeste 9 Este 0 -- -- 82
2018-01-20 07:00:00 0.9 0 Calma 5 Norte 0 -- -- 75
2018-01-20 06:00:00 1 2 Oeste 9 Sur 0 -- -- 72
2018-01-20 05:00:00 1.6 4 Sur 15 Norte 0 -- -- 71
2018-01-20 04:00:00 3.4 4 Sudeste 16 Sudeste 0 -- -- 61
2018-01-20 03:00:00 1.2 4 Sudeste 8 Sudeste 0 -- -- 71
2018-01-20 02:00:00 2.6 2 Oeste 24 Noroeste 0 -- -- 66
2018-01-20 01:00:00 4.3 12 Noroeste 29 Noroeste 0 -- -- 56
2018-01-20 00:00:00 5 8 Noroeste 24 Noroeste 0 -- -- 59
2018-01-19 23:00:00 5.3 7 Noroeste 28 Noroeste 0 -- -- 57
2018-01-19 22:00:00 5.6 7 Oeste 34 Noroeste 0 -- -- 60
2018-01-19 21:00:00 5.4 9 Noroeste 31 Noroeste 0 -- -- 63
2018-01-19 20:00:00 5.7 6 Noroeste 29 Noroeste 0 -- -- 58
2018-01-19 19:00:00 5.4 11 Noroeste 35 Noroeste 0 -- -- 61
2018-01-19 18:00:00 5.9 10 Noroeste 26 Norte 0 -- -- 59
2018-01-19 17:00:00 6.7 8 Noroeste 28 Noroeste 0 -- -- 57
2018-01-19 16:00:00 8.1 9 Noroeste 27 Norte 0 -- -- 57
2018-01-19 15:00:00 8 8 Noroeste 39 Norte 0 -- -- 54
2018-01-19 14:00:00 8.1 13 Noroeste 33 Noroeste 0 -- -- 58
2018-01-19 13:00:00 8.9 10 Norte 29 Noroeste 0 -- -- 53
2018-01-19 12:00:00 8.2 13 Noroeste 33 Noroeste 0 -- -- 54
2018-01-19 11:00:00 6.4 13 Norte 33 Noroeste 0 -- -- 65
2018-01-19 10:00:00 1.3 0 Calma 6 Norte 0 -- -- 80
2018-01-19 09:00:00 1.6 2 Oeste 6 Sudeste 0 -- -- 78
2018-01-19 08:00:00 2.2 2 Sudoeste 8 Sur 0 -- -- 75
2018-01-19 07:00:00 3.2 2 Sudeste 15 Nordeste 0 -- -- 72
2018-01-19 06:00:00 3.5 3 Este 18 Este 0 -- -- 76
2018-01-19 05:00:00 1.3 3 Sur 8 Sur 0 -- -- 83
2018-01-19 04:00:00 1.3 0 Calma 5 Sudoeste 0 -- -- 85
2018-01-19 03:00:00 1.8 0 Calma 4 Sur 0 -- -- 82
2018-01-19 02:00:00 2.4 3 Sur 6 Sur 0 -- -- 80
2018-01-19 01:00:00 3.7 3 Sudoeste 11 Norte 0 -- -- 77
2018-01-19 00:00:00 3.8 4 Noroeste 10 Norte 0 -- -- 79
2018-01-18 23:00:00 2.6 3 Noroeste 6 Noroeste 0 -- -- 84
2018-01-18 22:00:00 1.8 0 Calma 4 Noroeste 0 -- -- 84
2018-01-18 21:00:00 2 2 Sur 5 Sudoeste 0 -- -- 83
2018-01-18 20:00:00 2.3 0 Calma 4 Noroeste 0 -- -- 82
2018-01-18 19:00:00 2.7 0 Calma 4 Noroeste 0 -- -- 79
2018-01-18 18:00:00 3.9 2 Sudoeste 4 Noroeste 0 -- -- 75
2018-01-18 17:00:00 5.4 0 Calma 17 Sur 0 -- -- 68
2018-01-18 16:00:00 7.2 8 Sur 18 Sur 0 -- -- 58
2018-01-18 15:00:00 8.6 9 Sudeste 22 Sudeste 0 -- -- 54
2018-01-18 14:00:00 8.7 10 Sudeste 24 Sudeste 0 -- -- 51
2018-01-18 13:00:00 7.4 3 Sudeste 12 Sur 0 -- -- 54
2018-01-18 12:00:00 3.7 3 Norte 5 Norte 0 -- -- 66
2018-01-18 11:00:00 0.4 3 Norte 5 Nordeste 0 -- -- 81
2018-01-18 10:00:00 -2.4 0 Calma 4 Oeste 0 -- -- 88
2018-01-18 09:00:00 -2.8 0 Calma 3 Sur 0 -- -- 88
2018-01-18 08:00:00 -3 0 Calma 3 Oeste 0 -- -- 87
2018-01-18 07:00:00 -3 0 Calma 4 Noroeste 0 -- -- 87
2018-01-18 06:00:00 -2.9 0 Calma -- -- 0 -- -- 86
2018-01-18 05:00:00 -2.9 0 Calma 0 Calma 0 -- -- 86
2018-01-18 04:00:00 -2.7 0 Calma 4 Noroeste 0 -- -- 87
2018-01-18 03:00:00 -2.6 0 Calma 2 Oeste 0 -- -- 88
2018-01-18 02:00:00 -1.9 0 Calma 4 Sur 0 -- -- 84
2018-01-18 01:00:00 -1.5 0 Calma 5 Noroeste 0 -- -- 80
2018-01-18 00:00:00 -0.8 0 Calma 6 Este 0 -- -- 78
2018-01-17 23:00:00 0.3 2 Oeste 13 Noroeste 0 -- -- 75
2018-01-17 22:00:00 1.7 5 Noroeste 14 Noroeste 0 -- -- 65
2018-01-17 21:00:00 0.2 0 Calma 5 Sur 0 -- -- 74
2018-01-17 20:00:00 1.7 3 Sur 25 Nordeste 0 -- -- 68
2018-01-17 19:00:00 3.9 5 Norte 22 Norte 0 -- -- 58
2018-01-17 18:00:00 4.8 7 Norte 40 Norte 0 -- -- 56
2018-01-17 17:00:00 5.2 12 Noroeste 44 Noroeste 0 -- -- 52
2018-01-17 16:00:00 5.9 12 Noroeste 42 Noroeste 0 -- -- 51
2018-01-17 15:00:00 6.6 17 Noroeste 39 Norte 0 -- -- 50
2018-01-17 14:00:00 6.7 13 Noroeste 41 Noroeste 0 -- -- 46
2018-01-17 13:00:00 6.4 15 Noroeste 51 Noroeste 0 -- -- 49
2018-01-17 12:00:00 7.8 14 Noroeste 39 Norte 0 -- -- 51
2018-01-17 11:00:00 7.5 10 Noroeste 37 Noroeste 0 -- -- 52
2018-01-17 10:00:00 4.8 17 Noroeste 37 Norte 0 -- -- 56
2018-01-17 09:00:00 5.7 13 Noroeste 40 Norte 0 -- -- 54
2018-01-17 08:00:00 5.6 7 Norte 33 Norte 0 -- -- 57
2018-01-17 07:00:00 6.3 12 Noroeste 37 Noroeste 0 -- -- 56
2018-01-17 06:00:00 7.1 8 Norte 43 Norte 0 -- -- 54
2018-01-17 05:00:00 7.9 11 Noroeste 37 Norte 0 -- -- 56
2018-01-17 04:00:00 8.7 14 Noroeste 37 Noroeste 0 -- -- 54
2018-01-17 03:00:00 9.5 11 Noroeste 28 Noroeste 0 -- -- 53
2018-01-17 02:00:00 9.8 8 Noroeste 29 Norte 0 -- -- 57
2018-01-17 01:00:00 10.2 9 Noroeste 27 Norte 0 -- -- 58
2018-01-17 00:00:00 10.1 7 Norte 26 Noroeste 0 -- -- 59
2018-01-16 23:00:00 10.1 6 Norte 23 Noroeste 0 -- -- 60
2018-01-16 22:00:00 9.9 7 Norte 28 Oeste 0 -- -- 60
2018-01-16 21:00:00 10 7 Norte 25 Norte 0 -- -- 60
2018-01-16 20:00:00 10.1 9 Norte 33 Norte 0 -- -- 57
2018-01-16 19:00:00 10.4 9 Norte 23 Noroeste 0 -- -- 57
2018-01-16 18:00:00 10.7 7 Norte 25 Norte 0 -- -- 58
2018-01-16 17:00:00 10.7 8 Norte 29 Noroeste 0 -- -- 59
2018-01-16 16:00:00 11.1 9 Norte 27 Norte 0 -- -- 59
2018-01-16 15:00:00 11.9 9 Norte 32 Nordeste 0 -- -- 58
2018-01-16 14:00:00 11.1 5 Norte 23 Norte 0 -- -- 64
2018-01-16 13:00:00 10.7 5 Nordeste 23 Nordeste 0 -- -- 65
2018-01-16 12:00:00 10.5 5 Nordeste 19 Noroeste 0 -- -- 64
2018-01-16 11:00:00 9.6 5 Norte 28 Noroeste 0 -- -- 67
2018-01-16 10:00:00 8.4 6 Noroeste 22 Norte 0 -- -- 72
2018-01-16 09:00:00 4.5 4 Noroeste 21 Noroeste 0 -- -- 94
2018-01-16 08:00:00 1.4 4 Sudoeste 12 Norte 0 -- -- 99
2018-01-16 07:00:00 0.1 2 Sur 6 Sudoeste 0 -- -- 99
2018-01-16 06:00:00 0.3 3 Noroeste 7 Norte 0 -- -- 98
2018-01-16 05:00:00 0.2 2 Oeste 7 Norte 0 -- -- 98
2018-01-16 04:00:00 0.5 2 Noroeste 6 Oeste 0 -- -- 97
2018-01-16 03:00:00 0.7 2 Noroeste 6 Este 0 -- -- 97
2018-01-16 02:00:00 0.5 0 Calma 5 Sudeste 0 -- -- 97
2018-01-16 01:00:00 0.9 0 Calma 6 Oeste 0 -- -- 97
2018-01-16 00:00:00 0.9 0 Calma 5 Sudeste 0 -- -- 97
2018-01-15 23:00:00 1 0 Calma 5 Noroeste 0 -- -- 96
2018-01-15 22:00:00 1 0 Calma 6 Oeste 0 -- -- 95
2018-01-15 21:00:00 1 0 Calma 4 Oeste 0 -- -- 95
2018-01-15 20:00:00 1 0 Calma 4 Oeste 0 -- -- 94
2018-01-15 19:00:00 1.2 0 Calma 13 Sur 0 -- -- 92
2018-01-15 18:00:00 1.4 3 Sur 10 Sudoeste 0 -- -- 91
2018-01-15 17:00:00 1.7 0 Calma 14 Sudeste 0 -- -- 89
2018-01-15 16:00:00 2 5 Sudeste 15 Sudeste 0 -- -- 87
2018-01-15 15:00:00 2.4 5 Sudeste 18 Sudeste 0 -- -- 85
2018-01-15 14:00:00 2.7 6 Sudeste 15 Sudeste 0 -- -- 83
2018-01-15 13:00:00 2.3 4 Sudeste 16 Sudeste 0 -- -- 83
2018-01-15 12:00:00 1.9 3 Sudeste 7 Sudeste 0 -- -- 82
2018-01-15 11:00:00 -1 0 Calma 4 Sudeste 0 -- -- 94
2018-01-15 10:00:00 -2.6 0 Calma 3 Sudeste 0 -- -- 96
2018-01-15 09:00:00 -3.5 0 Calma 3 Norte 0 -- -- 96
2018-01-15 08:00:00 -3.5 0 Calma 3 Este 0 -- -- 95
2018-01-15 07:00:00 -3 0 Calma 4 Sur 0 -- -- 96
2018-01-15 06:00:00 -2.6 0 Calma 4 Sur 0 -- -- 96
2018-01-15 05:00:00 -2.1 0 Calma 4 Sur 0 -- -- 97
2018-01-15 04:00:00 -1.9 0 Calma 3 Oeste 0 -- -- 96
2018-01-15 03:00:00 -1.2 0 Calma 4 Sudoeste 0 -- -- 97
2018-01-15 02:00:00 -0.7 0 Calma 4 Oeste 0 -- -- 97
2018-01-15 01:00:00 -0.6 0 Calma 3 Norte 0 -- -- 96
2018-01-15 00:00:00 -0.2 0 Calma 4 Noroeste 0 -- -- 97
2018-01-14 23:00:00 -0.2 0 Calma 5 Sudoeste 0 -- -- 97
2018-01-14 22:00:00 -0.1 0 Calma 6 Sudoeste 0 -- -- 96
2018-01-14 21:00:00 0.4 0 Calma 4 Noroeste 0 -- -- 96
2018-01-14 20:00:00 0.6 0 Calma -- -- 0 -- -- 95
2018-01-14 19:00:00 0.8 0 Calma 2 Sur 0 -- -- 94
2018-01-14 18:00:00 1.1 0 Calma 2 Sudeste 0.2 -- -- 92
2018-01-14 17:00:00 1.2 0 Calma 10 Sur 0 -- -- 92
2018-01-14 16:00:00 1 6 Sur 14 Sur 0 -- -- 91
2018-01-14 15:00:00 1 7 Sudeste 14 Sudeste 0 -- -- 90
2018-01-14 14:00:00 1.3 6 Sudeste 15 Sudeste 0 -- -- 88
2018-01-14 13:00:00 1.8 0 Calma 5 Sudeste 0 -- -- 87
2018-01-14 12:00:00 1.1 0 Calma 4 Este 0 -- -- 90
2018-01-14 11:00:00 0.3 0 Calma 4 Norte 0.2 -- -- 92
2018-01-14 10:00:00 -0.1 0 Calma 0 Calma 0 -- -- 93
2018-01-14 09:00:00 -0.3 0 Calma -- -- 0.4 -- -- 94
2018-01-14 08:00:00 -0.2 0 Calma -- -- 0.4 -- -- 93
2018-01-14 07:00:00 -0.1 0 Calma -- -- 0.6 -- -- 94
2018-01-14 06:00:00 0 0 Calma -- -- 0.2 -- -- 95
2018-01-14 05:00:00 0.1 0 Calma -- -- 0.4 -- -- 92
2018-01-14 04:00:00 0.2 0 Calma -- -- 0.6 -- -- 92
2018-01-14 03:00:00 0.3 0 Calma -- -- 1 -- -- 92
2018-01-14 02:00:00 0.5 0 Calma -- -- 0.8 -- -- 91
2018-01-14 01:00:00 0.5 0 Calma -- -- 0.8 -- -- 91
2018-01-14 00:00:00 0.8 0 Calma 3 Noroeste 0.2 -- -- 90
2018-01-13 23:00:00 1.3 3 Noroeste 8 Sur 0 -- -- 85
2018-01-13 22:00:00 2.2 2 Sur 14 Sudeste 0 -- -- 72
2018-01-13 21:00:00 1.2 3 Oeste 6 Norte 0 -- -- 75
2018-01-13 20:00:00 1.7 0 Calma 11 Sudeste 0 -- -- 73
2018-01-13 19:00:00 2.7 3 Sur 15 Sudeste 0 -- -- 62
2018-01-13 18:00:00 3 3 Este 15 Sudoeste 0 -- -- 60
2018-01-13 17:00:00 4.6 9 Sudoeste 23 Sudoeste 0 -- -- 49
2018-01-13 16:00:00 5.2 5 Norte 10 Norte 0 -- -- 46
2018-01-13 15:00:00 5.1 3 Este 9 Este 0 -- -- 53
2018-01-13 14:00:00 4.1 0 Calma 4 Norte 0 -- -- 54
2018-01-13 13:00:00 2.7 0 Calma 5 Sudeste 0 -- -- 65
2018-01-13 12:00:00 0.9 0 Calma 5 Sudeste 0 -- -- 66
2018-01-13 11:00:00 -0.8 2 Sudeste 5 Sur 0 -- -- 77
2018-01-13 10:00:00 -2.4 0 Calma 4 Sudeste 0 -- -- 85
2018-01-13 09:00:00 -3.5 0 Calma 0 Calma 0 -- -- 86
2018-01-13 08:00:00 -4.2 0 Calma -- -- 0 -- -- 85
2018-01-13 07:00:00 -3.9 0 Calma 0 Calma 0 -- -- 83
2018-01-13 06:00:00 -3.7 0 Calma 3 Noroeste 0 -- -- 84
2018-01-13 05:00:00 -4.1 0 Calma 3 Noroeste 0 -- -- 86
2018-01-13 04:00:00 -4.7 0 Calma 3 Este 0 -- -- 86
2018-01-13 03:00:00 -4.3 0 Calma 4 Sudoeste 0 -- -- 84
2018-01-13 02:00:00 -3.9 0 Calma -- -- 0 -- -- 82
2018-01-13 01:00:00 -3.4 0 Calma 3 Sur 0 -- -- 82
2018-01-13 00:00:00 -2.9 0 Calma 3 Noroeste 0 -- -- 81
2018-01-12 23:00:00 -3 0 Calma 3 Oeste 0 -- -- 81
2018-01-12 22:00:00 -3 0 Calma 3 Sudoeste 0 -- -- 79
2018-01-12 21:00:00 -2.4 0 Calma 3 Sudoeste 0 -- -- 78
2018-01-12 20:00:00 -1.7 0 Calma 6 Sur 0 -- -- 78
2018-01-12 19:00:00 -0.7 2 Sur 6 Oeste 0 -- -- 72
2018-01-12 18:00:00 0.8 0 Calma 7 Sur 0 -- -- 71
2018-01-12 17:00:00 1.8 2 Noroeste 9 Oeste 0 -- -- 67
2018-01-12 16:00:00 4 3 Oeste 17 Norte 0 -- -- 53
2018-01-12 15:00:00 6.1 6 Noroeste 23 Noroeste 0 -- -- 44
2018-01-12 14:00:00 7.3 5 Norte 27 Nordeste 0 -- -- 40
2018-01-12 13:00:00 7.2 3 Nordeste 12 Este 0 -- -- 53
2018-01-12 12:00:00 6 6 Norte 28 Norte 0 -- -- 51
2018-01-12 11:00:00 4.2 9 Nordeste 26 Oeste 0 -- -- 54
2018-01-12 10:00:00 0.2 5 Norte 18 Norte 0 -- -- 61
2018-01-12 09:00:00 -0.5 3 Noroeste 11 Nordeste 0 -- -- 66
2018-01-12 08:00:00 -1 4 Noroeste 12 Norte 0 -- -- 70
2018-01-12 07:00:00 -2.2 0 Calma 6 Norte 0 -- -- 80
2018-01-12 06:00:00 -1.9 0 Calma 9 Noroeste 0 -- -- 81
2018-01-12 05:00:00 -1 3 Norte 13 Nordeste 0 -- -- 70
2018-01-12 04:00:00 -1.1 3 Noroeste 10 Norte 0 -- -- 75
2018-01-12 03:00:00 -1.8 2 Oeste 7 Sur 0 -- -- 81
2018-01-12 02:00:00 -1.5 2 Noroeste 12 Noroeste 0 -- -- 83
2018-01-12 01:00:00 -0.8 4 Noroeste 11 Noroeste 0 -- -- 78
2018-01-12 00:00:00 -1.4 3 Oeste 9 Este 0 -- -- 87
2018-01-11 23:00:00 -1.5 3 Sudoeste 6 Sudoeste 0 -- -- 88
2018-01-11 22:00:00 -1.6 3 Sudoeste 5 Sur 0 -- -- 90
2018-01-11 21:00:00 -1.3 0 Calma 5 Oeste 0 -- -- 89
2018-01-11 20:00:00 -0.5 0 Calma 4 Sudoeste 0 -- -- 87
2018-01-11 19:00:00 0.6 3 Oeste 19 Noroeste 0 -- -- 83
2018-01-11 18:00:00 1.8 4 Noroeste 23 Norte 0 -- -- 76
2018-01-11 17:00:00 3 5 Noroeste 24 Noroeste 0 -- -- 64
2018-01-11 16:00:00 3.5 5 Norte 21 Norte 0 -- -- 66
2018-01-11 15:00:00 3.7 7 Noroeste 23 Norte 0 -- -- 66
2018-01-11 14:00:00 3.5 11 Noroeste 24 Noroeste 0 -- -- 65
2018-01-11 13:00:00 3.9 9 Norte 24 Nordeste 0 -- -- 64
2018-01-11 12:00:00 2.1 3 Nordeste 17 Noroeste 0 -- -- 81
2018-01-11 11:00:00 0.1 0 Calma 4 Este 0 -- -- 92
2018-01-11 10:00:00 -0.9 2 Norte 5 Norte 0 -- -- 95
2018-01-11 09:00:00 -1.6 0 Calma 5 Este 0 -- -- 96
2018-01-11 08:00:00 -1.8 0 Calma 3 Sur 0 -- -- 96
2018-01-11 07:00:00 -2 0 Calma 4 Sudeste 0 -- -- 96
2018-01-11 06:00:00 -2 0 Calma 5 Nordeste 0 -- -- 96
2018-01-11 05:00:00 -2 0 Calma 4 Oeste 0 -- -- 93
2018-01-11 04:00:00 -1 2 Noroeste 4 Sur 0 -- -- 93
2018-01-11 03:00:00 -0.2 2 Sur 12 Noroeste 0 -- -- 89
2018-01-11 02:00:00 0.3 4 Noroeste 12 Noroeste 0 -- -- 87
2018-01-11 01:00:00 0 0 Calma 6 Norte 0 -- -- 97
2018-01-11 00:00:00 0.4 2 Oeste 6 Oeste 0.2 -- -- 97
2018-01-10 23:00:00 0.4 2 Sudoeste 6 Oeste 0.6 -- -- 97
2018-01-10 22:00:00 0.6 4 Sur 14 Sur 0.6 -- -- 96
2018-01-10 21:00:00 0.8 3 Sur 8 Sur 0.4 -- -- 96
2018-01-10 20:00:00 1.1 2 Sur 11 Este 0.4 -- -- 96
2018-01-10 19:00:00 1.7 0 Calma 8 Sur 1.4 -- -- 92
2018-01-10 18:00:00 2.4 3 Sudeste 9 Sur 0 -- -- 89
2018-01-10 17:00:00 2.9 4 Sur 12 Noroeste 0 -- -- 86
2018-01-10 16:00:00 3.3 7 Sudeste 15 Sur 0 -- -- 84
2018-01-10 15:00:00 3.2 3 Nordeste 18 Sudeste 0 -- -- 84
2018-01-10 14:00:00 3.5 11 Sur 28 Sur 0 -- -- 80
2018-01-10 13:00:00 2.8 0 Calma 5 Sudeste 0 -- -- 76
2018-01-10 12:00:00 0.4 2 Este 5 Este 0 -- -- 86
2018-01-10 11:00:00 -2.4 0 Calma 4 Este 0 -- -- 96
2018-01-10 10:00:00 -3.6 0 Calma 3 Sudoeste 0 -- -- 96
2018-01-10 09:00:00 -3.9 0 Calma 3 Oeste 0 -- -- 95
2018-01-10 08:00:00 -3.7 0 Calma -- -- 0 -- -- 95
2018-01-10 07:00:00 -3.4 0 Calma -- -- 0 -- -- 94
2018-01-10 06:00:00 -2.9 0 Calma 3 Sudoeste 0 -- -- 94
2018-01-10 05:00:00 -2.3 0 Calma 4 Sudoeste 0 -- -- 94
2018-01-10 04:00:00 -2 0 Calma 2 Sudoeste 0 -- -- 94
2018-01-10 03:00:00 -1.3 0 Calma 2 Oeste 0 -- -- 93
2018-01-10 02:00:00 -0.6 0 Calma 2 Oeste 0 -- -- 93
2018-01-10 01:00:00 -0.3 0 Calma -- -- 0.2 -- -- 93
2018-01-10 00:00:00 -0.1 0 Calma -- -- 0 -- -- 93
2018-01-09 23:00:00 0 0 Calma -- -- 0 -- -- 92
2018-01-09 22:00:00 0.3 0 Calma 0 Calma 0.2 -- -- 89
2018-01-09 21:00:00 0.7 0 Calma 5 Norte 0.2 -- -- 84
2018-01-09 20:00:00 1.4 2 Sur 14 Sudoeste 0 -- -- 78
2018-01-09 19:00:00 2.2 6 Sur 20 Sudoeste 0 -- -- 69
2018-01-09 18:00:00 2.7 3 Nordeste 17 Sudoeste 0 -- -- 66
2018-01-09 17:00:00 3.8 3 Nordeste 21 Sudoeste 0 -- -- 59
2018-01-09 16:00:00 5 11 Oeste 24 Oeste 0 -- -- 46
2018-01-09 15:00:00 5 3 Norte 12 Sudoeste 0 -- -- 44
2018-01-09 14:00:00 4 2 Sudeste 6 Sur 0 -- -- 52
2018-01-09 13:00:00 2.3 3 Sudeste 8 Este 0 -- -- 61
2018-01-09 12:00:00 -0.7 0 Calma 5 Sudeste 0 -- -- 75
2018-01-09 11:00:00 -4.1 0 Calma 3 Este 0 -- -- 92
2018-01-09 10:00:00 -6.2 0 Calma 3 Norte 0 -- -- 91
2018-01-09 09:00:00 -6.6 0 Calma 3 Sudoeste 0 -- -- 90
2018-01-09 08:00:00 -6.5 0 Calma 3 Sudoeste 0 -- -- 90
2018-01-09 07:00:00 -6.4 0 Calma 4 Sudeste 0 -- -- 90
2018-01-09 06:00:00 -6.3 0 Calma 4 Sur 0 -- -- 90
2018-01-09 05:00:00 -6 0 Calma 3 Sudoeste 0 -- -- 89
2018-01-09 04:00:00 -5.6 0 Calma 3 Oeste 0 -- -- 88
2018-01-09 03:00:00 -5.3 0 Calma 4 Oeste 0 -- -- 86
2018-01-09 02:00:00 -4.9 0 Calma 3 Sudoeste 0 -- -- 89
2018-01-09 01:00:00 -4.6 0 Calma 3 Sur 0 -- -- 88
2018-01-09 00:00:00 -4.1 0 Calma 4 Oeste 0 -- -- 87
2018-01-08 23:00:00 -3.7 0 Calma 5 Oeste 0 -- -- 88
2018-01-08 22:00:00 -3.4 0 Calma 3 Oeste 0 -- -- 88
2018-01-08 21:00:00 -2.8 0 Calma 4 Sudoeste 0 -- -- 90
2018-01-08 20:00:00 -2.4 0 Calma 4 Oeste 0 -- -- 89
2018-01-08 19:00:00 -1.6 0 Calma 4 Oeste 0 -- -- 89
2018-01-08 18:00:00 -0.6 0 Calma 6 Sudoeste 0 -- -- 89
2018-01-08 17:00:00 0.5 0 Calma 5 Norte 0 -- -- 89
2018-01-08 16:00:00 2 0 Calma 9 Sudeste 0 -- -- 86
2018-01-08 15:00:00 3.4 2 Sudeste 6 Este 0 -- -- 78
2018-01-08 14:00:00 4.5 2 Sudoeste 5 Nordeste 0 -- -- 78
2018-01-08 13:00:00 3.2 0 Calma 4 Este 0 -- -- 85
2018-01-08 12:00:00 1.3 0 Calma 4 Este 0 -- -- 86
2018-01-08 11:00:00 -2 0 Calma 4 Oeste 0 -- -- 98
2018-01-08 10:00:00 -3.6 0 Calma 2 Noroeste 0 -- -- 95
2018-01-08 09:00:00 -3.5 0 Calma 4 Noroeste 0 -- -- 95
2018-01-08 08:00:00 -3.2 0 Calma 3 Oeste 0 -- -- 96
2018-01-08 07:00:00 -2.7 0 Calma 3 Sur 0 -- -- 97
2018-01-08 06:00:00 -2.1 0 Calma 3 Sudoeste 0 -- -- 98
2018-01-08 05:00:00 -1.4 0 Calma 2 Oeste 0 -- -- 98
2018-01-08 04:00:00 -1 0 Calma 0 Calma 0 -- -- 98
2018-01-08 03:00:00 -0.4 0 Calma 4 Oeste 0 -- -- 99
2018-01-08 02:00:00 -0.3 0 Calma 3 Noroeste 0 -- -- 99
2018-01-08 01:00:00 -0.1 0 Calma 2 Oeste 0 -- -- 98
2018-01-08 00:00:00 0 0 Calma 2 Norte 0 -- -- 98
2018-01-07 23:00:00 0.1 0 Calma 3 Noroeste 0 -- -- 98
2018-01-07 22:00:00 0.1 0 Calma -- -- 0 -- -- 98
2018-01-07 21:00:00 0.3 0 Calma -- -- 0 -- -- 98
2018-01-07 20:00:00 0.5 0 Calma 0 Calma 0 -- -- 97
2018-01-07 19:00:00 0.8 0 Calma -- -- 0 -- -- 96
2018-01-07 18:00:00 1.5 0 Calma 6 Sur 0 -- -- 95
2018-01-07 17:00:00 2.5 2 Noroeste 12 Sur 0 -- -- 95
2018-01-07 16:00:00 2.6 2 Noroeste 10 Sur 0 -- -- 96
2018-01-07 15:00:00 1.9 3 Sur 9 Sur 0.2 -- -- 97
2018-01-07 14:00:00 2 0 Calma 16 Oeste 1.4 -- -- 95
2018-01-07 13:00:00 2.7 8 Sudoeste 29 Oeste 6.8 -- -- 87
2018-01-07 12:00:00 2.8 5 Norte 12 Oeste 0.2 -- -- 95
2018-01-07 11:00:00 2.2 3 Sudoeste 12 Oeste 0 -- -- 95
2018-01-07 10:00:00 1.7 3 Sur 14 Sudeste 0 -- -- 95
2018-01-07 09:00:00 4.1 7 Noroeste 55 Sur 0.6 -- -- 80
2018-01-07 08:00:00 2.4 14 Sur 53 Sur 2.2 -- -- 87
2018-01-07 07:00:00 0.2 0 Calma 5 Oeste 5.2 -- -- 99
2018-01-07 06:00:00 0.1 0 Calma 3 Este 0.8 -- -- 98
2018-01-07 05:00:00 0.4 0 Calma 9 Sur 4.6 -- -- 98
2018-01-07 04:00:00 0.9 2 Noroeste 10 Sudeste 1.8 -- -- 98
2018-01-07 03:00:00 0.7 2 Noroeste 6 Norte 1.6 -- -- 97
2018-01-07 02:00:00 0.9 0 Calma 9 Norte 1.2 -- -- 97
2018-01-07 01:00:00 1.6 3 Sudeste 8 Sudeste 4.6 -- -- 95
2018-01-07 00:00:00 2.7 0 Calma 9 Oeste 2 -- -- 97
2018-01-06 23:00:00 2.6 6 Sudoeste 12 Sudoeste 0 -- -- 96
2018-01-06 22:00:00 2.5 2 Oeste 9 Sudoeste 0 -- -- 95
2018-01-06 21:00:00 2.7 2 Sudoeste 9 Oeste 0 -- -- 95
2018-01-06 20:00:00 3.1 2 Sudoeste 5 Sudoeste 0.2 -- -- 94
2018-01-06 19:00:00 3.7 2 Sudoeste 7 Sudoeste 0 -- -- 94
2018-01-06 18:00:00 4.3 2 Noroeste 16 Sur 0.8 -- -- 93
2018-01-06 17:00:00 5.1 2 Sur 10 Oeste 0.2 -- -- 89
2018-01-06 16:00:00 5.6 3 Noroeste 18 Sudeste 0 -- -- 87
2018-01-06 15:00:00 6.5 5 Noroeste 17 Noroeste 0 -- -- 80
2018-01-06 14:00:00 5.9 4 Noroeste 29 Sudeste 0 -- -- 87
2018-01-06 13:00:00 5.5 10 Sudoeste 24 Sudoeste 0 -- -- 83
2018-01-06 12:00:00 4.1 3 Noroeste 9 Oeste 0 -- -- 99
2018-01-06 11:00:00 3 3 Sur 13 Este 0.2 -- -- 98
2018-01-06 10:00:00 2.5 4 Oeste 11 Sudeste 0.8 -- -- 99
2018-01-06 09:00:00 1.9 2 Oeste 10 Sudoeste 1.6 -- -- 98
2018-01-06 08:00:00 1.6 3 Oeste 7 Oeste 1.2 -- -- 98
2018-01-06 07:00:00 1.5 0 Calma 3 Sudeste 1.6 -- -- 97
2018-01-06 06:00:00 1.8 0 Calma 5 Sudeste 1.6 -- -- 96
2018-01-06 05:00:00 2.3 3 Sur 6 Sur 1.8 -- -- 95
2018-01-06 04:00:00 3.3 3 Sur 14 Este 1.8 -- -- 95
2018-01-06 03:00:00 4.2 4 Norte 24 Oeste 3.6 -- -- 92
2018-01-06 02:00:00 4.5 4 Norte 12 Sur 3 -- -- 97
2018-01-06 01:00:00 4.3 0 Calma 6 Sur 1.2 -- -- 98
2018-01-06 00:00:00 4.4 3 Este 7 Sur 1 -- -- 98
2018-01-05 23:00:00 4.5 0 Calma 4 Sudeste 0.8 -- -- 97
2018-01-05 22:00:00 4.6 0 Calma 6 Sur 0.4 -- -- 97
2018-01-05 21:00:00 4.7 0 Calma 4 Noroeste 1.2 -- -- 97
2018-01-05 20:00:00 4.9 0 Calma 3 Sudeste 0.4 -- -- 96
2018-01-05 19:00:00 5.1 0 Calma 6 Sudoeste 0.4 -- -- 95
2018-01-05 18:00:00 5.2 0 Calma 12 Norte 0.6 -- -- 94
2018-01-05 17:00:00 5.6 5 Norte 26 Oeste 0.6 -- -- 92
2018-01-05 16:00:00 6.5 10 Oeste 26 Oeste 0 -- -- 82
2018-01-05 15:00:00 7 4 Noroeste 13 Oeste 0 -- -- 77
2018-01-05 14:00:00 6.8 2 Este 10 Este 0 -- -- 87
2018-01-05 13:00:00 5.4 2 Norte 6 Noroeste 0 -- -- 93
2018-01-05 12:00:00 3.3 0 Calma 5 Sudeste 0 -- -- 92
2018-01-05 11:00:00 2 0 Calma 5 Norte 0 -- -- 96
2018-01-05 10:00:00 1 0 Calma 4 Sudeste 0 -- -- 97
2018-01-05 09:00:00 0.7 2 Sudoeste 6 Este 0 -- -- 97
2018-01-05 08:00:00 0.5 0 Calma 4 Este 0 -- -- 97
2018-01-05 07:00:00 0.5 0 Calma 4 Este 0 -- -- 96
2018-01-05 06:00:00 0.7 0 Calma 4 Sur 0 -- -- 96
2018-01-05 05:00:00 0.8 0 Calma 4 Noroeste 0 -- -- 96
2018-01-05 04:00:00 1.1 0 Calma 3 Noroeste 0 -- -- 95
2018-01-05 03:00:00 1.5 0 Calma 3 Noroeste 0 -- -- 95
2018-01-05 02:00:00 1.5 0 Calma 4 Norte 0 -- -- 93
2018-01-05 01:00:00 2.2 0 Calma 3 Oeste 0 -- -- 93
2018-01-05 00:00:00 2.4 0 Calma 3 Sudeste 0 -- -- 94
2018-01-04 23:00:00 2 0 Calma 4 Oeste 0 -- -- 92
2018-01-04 22:00:00 2.7 0 Calma 4 Oeste 0 -- -- 90
2018-01-04 21:00:00 3.5 0 Calma 5 Sur 0 -- -- 89
2018-01-04 20:00:00 4.6 0 Calma 7 Sudeste 0 -- -- 85
2018-01-04 19:00:00 6 0 Calma 6 Este 0 -- -- 81
2018-01-04 18:00:00 8.1 2 Sudoeste 20 Sudoeste 0 -- -- 73
2018-01-04 17:00:00 10.5 6 Sur 20 Sur 0 -- -- 66
2018-01-04 16:00:00 11 3 Noroeste 9 Oeste 0 -- -- 62
2018-01-04 15:00:00 13.7 4 Oeste 10 Sudoeste 0 -- -- 43
2018-01-04 14:00:00 14.1 3 Sur 6 Sur 0 -- -- 47
2018-01-04 13:00:00 12.8 4 Este 22 Noroeste 0 -- -- 58
2018-01-04 12:00:00 8.5 3 Sudeste 6 Este 0 -- -- 83
2018-01-04 11:00:00 5.5 2 Sudeste 6 Oeste 0 -- -- 90
2018-01-04 10:00:00 5 0 Calma 5 Norte 0 -- -- 89
2018-01-04 09:00:00 5.9 0 Calma 5 Norte 0 -- -- 86
2018-01-04 08:00:00 -- 0 Calma 4 Sudoeste 0 -- -- 85
2018-01-04 07:00:00 7 2 Sur 5 Sur 0 -- -- 82
2018-01-04 06:00:00 7.8 0 Calma 12 Noroeste 0 -- -- 80
2018-01-04 05:00:00 8.9 2 Oeste 18 Norte 0 -- -- 74
2018-01-04 04:00:00 10.3 4 Norte 16 Noroeste 0 -- -- 68
2018-01-04 03:00:00 9.7 2 Sur 17 Noroeste 0 -- -- 77
2018-01-04 02:00:00 11.2 7 Noroeste 27 Norte 0 -- -- 68
2018-01-04 01:00:00 11.7 9 Noroeste 29 Norte 0 -- -- 64
2018-01-04 00:00:00 11.9 9 Noroeste 30 Norte 0 -- -- 63
2018-01-03 23:00:00 12.1 9 Norte 32 Norte 0 -- -- 63
2018-01-03 22:00:00 11.5 8 Norte 28 Nordeste 0 -- -- 66
2018-01-03 21:00:00 8.6 3 Noroeste 13 Nordeste 0 -- -- 83
2018-01-03 20:00:00 8.1 3 Noroeste 13 Nordeste 0.2 -- -- 85
2018-01-03 19:00:00 7.8 4 Noroeste 14 Noroeste 0 -- -- 85
2018-01-03 18:00:00 8.4 5 Noroeste 14 Norte 0 -- -- 78
2018-01-03 17:00:00 10.2 7 Norte 25 Norte 0 -- -- 65
2018-01-03 16:00:00 11.1 9 Norte 28 Norte 0 -- -- 57
2018-01-03 15:00:00 11.8 7 Noroeste 19 Noroeste 0 -- -- 48
2018-01-03 14:00:00 12.7 5 Norte 19 Norte 0 -- -- 45
2018-01-03 13:00:00 12.7 7 Norte 25 Noroeste 0 -- -- 44
2018-01-03 12:00:00 12.3 8 Noroeste 30 Nordeste 0 -- -- 52
2018-01-03 11:00:00 10.6 5 Norte 24 Norte 0 -- -- 62
2018-01-03 10:00:00 9.2 7 Noroeste 26 Norte 0.2 -- -- 81
2018-01-03 09:00:00 5.6 2 Sudoeste 9 Noroeste 0.2 -- -- 100
2018-01-03 08:00:00 4.9 3 Sur 8 Este 0 -- -- 99
2018-01-03 07:00:00 4.6 3 Oeste 8 Sudoeste 0.2 -- -- 100
2018-01-03 06:00:00 4.8 2 Noroeste 9 Este 0 -- -- 99
2018-01-03 05:00:00 3.8 3 Oeste 7 Norte 0 -- -- 99
2018-01-03 04:00:00 3.4 2 Norte 6 Norte 0.2 -- -- 99
2018-01-03 03:00:00 3.3 0 Calma 7 Norte 0 -- -- 99
2018-01-03 02:00:00 3.6 3 Norte 9 Sur 0 -- -- 99
2018-01-03 01:00:00 3.3 0 Calma 5 Noroeste 0 -- -- 99
2018-01-03 00:00:00 3.6 2 Sudeste 8 Sudoeste 0 -- -- 99
2018-01-02 23:00:00 3.6 2 Noroeste 5 Este 0 -- -- 99
2018-01-02 22:00:00 3.4 0 Calma 5 Sudeste 0 -- -- 98
2018-01-02 21:00:00 3.8 0 Calma 5 Noroeste 0.2 -- -- 99
2018-01-02 20:00:00 4.2 0 Calma 5 Este 0.6 -- -- 98
2018-01-02 19:00:00 4.3 0 Calma 7 Sudoeste 0 -- -- 98
2018-01-02 18:00:00 4.8 2 Noroeste 6 Este 0 -- -- 97
2018-01-02 17:00:00 5.6 0 Calma 4 Noroeste 0.2 -- -- 96
2018-01-02 16:00:00 6.3 3 Sur 6 Sudeste 0.2 -- -- 96
2018-01-02 15:00:00 6.4 0 Calma 5 Norte 0.4 -- -- 96
2018-01-02 14:00:00 6.1 3 Nordeste 6 Este 0.4 -- -- 96
2018-01-02 13:00:00 5.8 2 Norte 6 Sudeste 0.8 -- -- 97
2018-01-02 12:00:00 5 0 Calma 6 Oeste 1.4 -- -- 95
2018-01-02 11:00:00 4.7 0 Calma 5 Norte 0.8 -- -- 95
2018-01-02 10:00:00 4.1 2 Noroeste 9 Oeste 0.4 -- -- 96
2018-01-02 09:00:00 3.1 0 Calma 6 Sur 0 -- -- 93
2018-01-02 08:00:00 4.2 2 Sudoeste 18 Oeste 0.6 -- -- 87
2018-01-02 07:00:00 3.5 4 Noroeste 18 Noroeste 0.2 -- -- 92
2018-01-02 06:00:00 1.9 0 Calma 5 Este 0 -- -- 88
2018-01-02 05:00:00 2.3 0 Calma 10 Noroeste 0 -- -- 85
2018-01-02 04:00:00 2.7 5 Noroeste 15 Noroeste 0 -- -- 80
2018-01-02 03:00:00 3.1 3 Noroeste 21 Noroeste 0.2 -- -- 79
2018-01-02 02:00:00 5 6 Noroeste 33 Noroeste 0 -- -- 57
2018-01-02 01:00:00 5.7 9 Noroeste 27 Norte 0 -- -- 44
2018-01-02 00:00:00 5.7 8 Norte 29 Noroeste 0 -- -- 51
2018-01-01 23:00:00 4.9 5 Norte 36 Norte 0 -- -- 75
2018-01-01 22:00:00 4.4 8 Nordeste 42 Noroeste 0 -- -- 68
2018-01-01 21:00:00 2.9 6 Noroeste 24 Oeste 3 -- -- 97
2018-01-01 20:00:00 1.5 3 Oeste 12 Norte 3 -- -- 97
2018-01-01 19:00:00 0.5 3 Oeste 15 Sur 2.4 -- -- 96
2018-01-01 18:00:00 0.8 0 Calma 12 Este 3.2 -- -- 93
2018-01-01 17:00:00 2.4 5 Sudoeste 28 Oeste 0.8 -- -- 88
2018-01-01 16:00:00 3.1 3 Oeste 9 Noroeste 0.2 -- -- 87
2018-01-01 15:00:00 4.1 3 Sudeste 6 Noroeste 0 -- -- 80
2018-01-01 14:00:00 5.3 0 Calma 6 Este 0 -- -- 64
2018-01-01 13:00:00 4.1 3 Sudeste 9 Norte 0 -- -- 71
2018-01-01 12:00:00 1.9 4 Este 7 Este 0 -- -- 81
2018-01-01 11:00:00 0 0 Calma 8 Noroeste 0 -- -- 92
2018-01-01 10:00:00 -1.3 0 Calma 4 Noroeste 0 -- -- 93
2018-01-01 09:00:00 -1 0 Calma 9 Noroeste 0 -- -- 92
2018-01-01 08:00:00 -0.6 2 Noroeste 5 Oeste 0 -- -- 92
2018-01-01 07:00:00 0.2 2 Sudoeste 13 Noroeste 0 -- -- 89
2018-01-01 06:00:00 1.2 2 Sudoeste 24 Norte 0 -- -- 88
2018-01-01 05:00:00 1.4 3 Noroeste 17 Noroeste 0 -- -- 89
2018-01-01 04:00:00 1.3 3 Noroeste 15 Noroeste 0.2 -- -- 90
2018-01-01 03:00:00 1.3 3 Norte 15 Noroeste 0 -- -- 83
2018-01-01 02:00:00 1.2 2 Sudoeste 12 Norte 0 -- -- 87
2018-01-01 01:00:00 2.4 3 Noroeste 23 Norte 0 -- -- 73
2018-01-01 00:00:00 2.9 11 Norte 27 Norte 0 -- -- 64
2017-12-31 23:00:00 2 7 Noroeste 19 Norte 0 -- -- 78
2017-12-31 22:00:00 1.7 0 Calma 7 Norte 1.2 -- -- 94
2017-12-31 21:00:00 2.6 4 Noroeste 22 Norte 0.6 -- -- 90
2017-12-31 20:00:00 2.5 0 Calma 3 Noroeste 0.8 -- -- 94
2017-12-31 19:00:00 2.9 0 Calma 5 Este 0 -- -- 91
2017-12-31 18:00:00 3.7 0 Calma 10 Sudoeste 0 -- -- 86
2017-12-31 17:00:00 6 5 Sudoeste 29 Sudoeste 0 -- -- 76
2017-12-31 16:00:00 6 7 Sudeste 22 Sur 0 -- -- 79
2017-12-31 15:00:00 6.6 11 Sur 22 Sudeste 0 -- -- 76
2017-12-31 14:00:00 5.7 2 Nordeste 23 Nordeste 0 -- -- 74
2017-12-31 13:00:00 3.2 0 Calma 8 Noroeste 0 -- -- 80
2017-12-31 12:00:00 2 2 Sudoeste 6 Sur 0 -- -- 86
2017-12-31 11:00:00 0.6 0 Calma 6 Sudeste 0 -- -- 91
2017-12-31 10:00:00 -0.6 2 Sudeste 5 Sudeste 0 -- -- 92
2017-12-31 09:00:00 -1.2 2 Oeste 7 Sur 0 -- -- 93
2017-12-31 08:00:00 -1.8 0 Calma 7 Sudeste 0 -- -- 94
2017-12-31 07:00:00 -2 0 Calma 5 Noroeste 0 -- -- 95
2017-12-31 06:00:00 -2.2 2 Noroeste 5 Sudeste 0 -- -- 96
2017-12-31 05:00:00 -2.2 0 Calma 3 Sudeste 0 -- -- 96
2017-12-31 04:00:00 -2.3 0 Calma 4 Noroeste 0 -- -- 95
2017-12-31 03:00:00 -2 2 Noroeste 4 Noroeste 0 -- -- 96
2017-12-31 02:00:00 -1.8 0 Calma 5 Noroeste 0 -- -- 96
2017-12-31 01:00:00 -1.3 0 Calma 4 Oeste 0 -- -- 97